sensor_id;sensor_type;location;lat;lon;timestamp;pressure;altitude;pressure_sealevel;temperature;humidity
48352;BME280;34163;49.314;6.752;2022-11-20T00:00:05;99128.22;;;5.55;100.00
48352;BME280;34163;49.314;6.752;2022-11-20T00:02:31;99118.69;;;5.51;100.00
48352;BME280;34163;49.314;6.752;2022-11-20T00:04:56;99123.06;;;5.52;100.00
48352;BME280;34163;49.314;6.752;2022-11-20T00:07:22;99121.41;;;5.48;100.00
48352;BME280;34163;49.314;6.752;2022-11-20T00:09:48;99119.59;;;5.50;100.00
48352;BME280;34163;49.314;6.752;2022-11-20T00:12:13;99118.59;;;5.54;100.00
48352;BME280;34163;49.314;6.752;2022-11-20T00:14:38;99119.44;;;5.55;100.00
48352;BME280;34163;49.314;6.752;2022-11-20T00:17:04;99118.41;;;5.60;100.00
48352;BME280;34163;49.314;6.752;2022-11-20T00:19:29;99119.28;;;5.59;100.00
48352;BME280;34163;49.314;6.752;2022-11-20T00:21:55;99113.13;;;5.60;100.00
48352;BME280;34163;49.314;6.752;2022-11-20T00:24:20;99117.38;;;5.64;100.00
48352;BME280;34163;49.314;6.752;2022-11-20T00:26:45;99119.16;;;5.64;100.00
48352;BME280;34163;49.314;6.752;2022-11-20T00:29:11;99117.56;;;5.58;100.00
48352;BME280;34163;49.314;6.752;2022-11-20T00:31:36;99122.63;;;5.64;100.00
48352;BME280;34163;49.314;6.752;2022-11-20T00:34:03;99118.34;;;5.62;100.00
48352;BME280;34163;49.314;6.752;2022-11-20T00:36:31;99124.44;;;5.62;100.00
48352;BME280;34163;49.314;6.752;2022-11-20T00:38:57;99123.59;;;5.62;100.00
48352;BME280;34163;49.314;6.752;2022-11-20T00:41:23;99126.19;;;5.63;100.00
48352;BME280;34163;49.314;6.752;2022-11-20T00:43:49;99120.03;;;5.63;100.00
48352;BME280;34163;49.314;6.752;2022-11-20T00:46:19;99130.34;;;5.69;100.00
48352;BME280;34163;49.314;6.752;2022-11-20T00:48:45;99119.75;;;5.72;100.00
48352;BME280;34163;49.314;6.752;2022-11-20T00:51:11;99123.25;;;5.73;100.00
48352;BME280;34163;49.314;6.752;2022-11-20T00:53:39;99122.31;;;5.74;100.00
48352;BME280;34163;49.314;6.752;2022-11-20T00:56:13;99122.22;;;5.77;100.00
48352;BME280;34163;49.314;6.752;2022-11-20T00:58:39;99122.13;;;5.80;100.00
48352;BME280;34163;49.314;6.752;2022-11-20T01:03:31;99122.00;;;5.83;100.00
48352;BME280;34163;49.314;6.752;2022-11-20T01:05:59;99120.25;;;5.83;100.00
48352;BME280;34163;49.314;6.752;2022-11-20T01:08:34;99124.59;;;5.85;100.00
48352;BME280;34163;49.314;6.752;2022-11-20T01:11:04;99122.72;;;5.88;100.00
48352;BME280;34163;49.314;6.752;2022-11-20T01:13:30;99130.56;;;5.90;100.00
48352;BME280;34163;49.314;6.752;2022-11-20T01:18:33;99129.47;;;5.97;100.00
48352;BME280;34163;49.314;6.752;2022-11-20T01:21:06;99122.44;;;5.97;100.00
48352;BME280;34163;49.314;6.752;2022-11-20T01:23:35;99129.47;;;5.97;100.00
48352;BME280;34163;49.314;6.752;2022-11-20T01:26:02;99128.50;;;5.99;100.00
48352;BME280;34163;49.314;6.752;2022-11-20T01:28:28;99120.59;;;5.99;100.00
48352;BME280;34163;49.314;6.752;2022-11-20T01:30:53;99127.53;;;6.02;100.00
48352;BME280;34163;49.314;6.752;2022-11-20T01:33:18;99128.50;;;5.99;100.00
48352;BME280;34163;49.314;6.752;2022-11-20T01:35:43;99128.38;;;6.03;100.00
48352;BME280;34163;49.314;6.752;2022-11-20T01:38:09;99122.19;;;6.05;100.00
48352;BME280;34163;49.314;6.752;2022-11-20T01:40:34;99127.44;;;6.05;100.00
48352;BME280;34163;49.314;6.752;2022-11-20T01:43:06;99129.13;;;6.06;100.00
48352;BME280;34163;49.314;6.752;2022-11-20T01:48:32;99124.66;;;6.10;100.00
48352;BME280;34163;49.314;6.752;2022-11-20T01:50:58;99125.34;;;6.15;100.00
48352;BME280;34163;49.314;6.752;2022-11-20T01:53:33;99121.75;;;6.17;100.00
48352;BME280;34163;49.314;6.752;2022-11-20T01:56:14;99118.13;;;6.20;100.00
48352;BME280;34163;49.314;6.752;2022-11-20T01:58:42;99129.88;;;6.35;100.00
48352;BME280;34163;49.314;6.752;2022-11-20T02:01:09;99130.06;;;6.30;100.00
48352;BME280;34163;49.314;6.752;2022-11-20T02:03:34;99123.88;;;6.31;100.00
48352;BME280;34163;49.314;6.752;2022-11-20T02:08:54;99120.34;;;6.32;100.00
48352;BME280;34163;49.314;6.752;2022-11-20T02:11:19;99110.66;;;6.33;100.00
48352;BME280;34163;49.314;6.752;2022-11-20T02:13:45;99121.13;;;6.34;100.00
48352;BME280;34163;49.314;6.752;2022-11-20T02:16:24;99110.50;;;6.38;100.00
48352;BME280;34163;49.314;6.752;2022-11-20T02:18:50;99112.97;;;6.42;100.00
48352;BME280;34163;49.314;6.752;2022-11-20T02:21:35;99113.81;;;6.43;100.00
48352;BME280;34163;49.314;6.752;2022-11-20T02:26:43;99110.28;;;6.44;100.00
48352;BME280;34163;49.314;6.752;2022-11-20T02:29:10;99113.66;;;6.47;100.00
48352;BME280;34163;49.314;6.752;2022-11-20T02:31:40;99101.38;;;6.48;100.00
48352;BME280;34163;49.314;6.752;2022-11-20T02:34:06;99104.00;;;6.48;100.00
48352;BME280;34163;49.314;6.752;2022-11-20T02:36:32;99107.31;;;6.53;100.00
48352;BME280;34163;49.314;6.752;2022-11-20T02:38:57;99105.59;;;6.52;100.00
48352;BME280;34163;49.314;6.752;2022-11-20T02:56:57;99096.31;;;6.65;100.00
48352;BME280;34163;49.314;6.752;2022-11-20T02:59:22;99095.38;;;6.66;100.00
48352;BME280;34163;49.314;6.752;2022-11-20T03:01:47;99101.44;;;6.68;100.00
48352;BME280;34163;49.314;6.752;2022-11-20T03:04:12;99095.16;;;6.72;100.00
48352;BME280;34163;49.314;6.752;2022-11-20T03:06:38;99095.06;;;6.76;100.00
48352;BME280;34163;49.314;6.752;2022-11-20T03:09:03;99089.84;;;6.74;100.00
48352;BME280;34163;49.314;6.752;2022-11-20T03:11:28;99089.00;;;6.73;100.00
48352;BME280;34163;49.314;6.752;2022-11-20T03:13:53;99086.41;;;6.72;100.00
48352;BME280;34163;49.314;6.752;2022-11-20T03:16:19;99088.00;;;6.76;100.00
48352;BME280;34163;49.314;6.752;2022-11-20T03:18:45;99086.34;;;6.73;100.00
48352;BME280;34163;49.314;6.752;2022-11-20T03:21:11;99079.25;;;6.76;100.00
48352;BME280;34163;49.314;6.752;2022-11-20T03:23:36;99084.28;;;6.82;100.00
48352;BME280;34163;49.314;6.752;2022-11-20T03:28:37;99081.41;;;6.88;100.00
48352;BME280;34163;49.314;6.752;2022-11-20T03:31:06;99079.69;;;6.87;100.00
48352;BME280;34163;49.314;6.752;2022-11-20T03:33:32;99081.34;;;6.89;100.00
48352;BME280;34163;49.314;6.752;2022-11-20T03:36:00;99069.88;;;6.90;100.00
48352;BME280;34163;49.314;6.752;2022-11-20T03:38:28;99074.31;;;6.90;100.00
48352;BME280;34163;49.314;6.752;2022-11-20T03:40:57;99076.03;;;6.91;100.00
48352;BME280;34163;49.314;6.752;2022-11-20T03:43:22;99073.22;;;6.96;100.00
48352;BME280;34163;49.314;6.752;2022-11-20T03:45:48;99074.91;;;6.97;100.00
48352;BME280;34163;49.314;6.752;2022-11-20T03:48:13;99084.53;;;6.98;100.00
48352;BME280;34163;49.314;6.752;2022-11-20T03:50:39;99075.66;;;7.00;100.00
48352;BME280;34163;49.314;6.752;2022-11-20T03:53:04;99080.91;;;7.00;100.00
48352;BME280;34163;49.314;6.752;2022-11-20T03:55:29;99079.09;;;7.02;100.00
48352;BME280;34163;49.314;6.752;2022-11-20T03:57:55;99074.69;;;7.03;100.00
48352;BME280;34163;49.314;6.752;2022-11-20T04:00:20;99080.78;;;7.03;100.00
48352;BME280;34163;49.314;6.752;2022-11-20T04:02:45;99074.63;;;7.04;100.00
48352;BME280;34163;49.314;6.752;2022-11-20T04:05:10;99079.81;;;7.06;100.00
48352;BME280;34163;49.314;6.752;2022-11-20T04:07:36;99072.78;;;7.06;100.00
48352;BME280;34163;49.314;6.752;2022-11-20T04:10:01;99074.38;;;7.11;100.00
48352;BME280;34163;49.314;6.752;2022-11-20T04:12:26;99084.00;;;7.12;100.00
48352;BME280;34163;49.314;6.752;2022-11-20T04:14:52;99082.16;;;7.14;100.00
48352;BME280;34163;49.314;6.752;2022-11-20T04:17:17;99072.47;;;7.14;100.00
48352;BME280;34163;49.314;6.752;2022-11-20T04:19:42;99078.47;;;7.18;100.00
48352;BME280;34163;49.314;6.752;2022-11-20T04:22:07;99071.44;;;7.18;100.00
48352;BME280;34163;49.314;6.752;2022-11-20T04:24:33;99080.31;;;7.16;100.00
48352;BME280;34163;49.314;6.752;2022-11-20T04:26:58;99076.78;;;7.17;100.00
48352;BME280;34163;49.314;6.752;2022-11-20T04:29:24;99082.66;;;7.23;100.00
48352;BME280;34163;49.314;6.752;2022-11-20T04:31:49;99079.22;;;7.21;100.00
48352;BME280;34163;49.314;6.752;2022-11-20T04:34:16;99084.31;;;7.26;100.00
48352;BME280;34163;49.314;6.752;2022-11-20T04:36:44;99079.81;;;7.28;100.00
48352;BME280;34163;49.314;6.752;2022-11-20T04:39:13;99078.88;;;7.29;100.00
48352;BME280;34163;49.314;6.752;2022-11-20T04:41:39;99077.97;;;7.30;100.00
48352;BME280;34163;49.314;6.752;2022-11-20T04:44:05;99083.19;;;7.32;100.00
48352;BME280;34163;49.314;6.752;2022-11-20T04:46:34;99081.28;;;7.35;100.00
48352;BME280;34163;49.314;6.752;2022-11-20T04:49:00;99082.09;;;7.37;100.00
48352;BME280;34163;49.314;6.752;2022-11-20T04:51:28;99074.06;;;7.40;100.00
48352;BME280;34163;49.314;6.752;2022-11-20T04:53:54;99081.97;;;7.40;100.00
48352;BME280;34163;49.314;6.752;2022-11-20T04:56:19;99079.34;;;7.40;100.00
48352;BME280;34163;49.314;6.752;2022-11-20T04:58:44;99077.47;;;7.42;100.00
48352;BME280;34163;49.314;6.752;2022-11-20T05:01:19;99079.13;;;7.45;100.00
48352;BME280;34163;49.314;6.752;2022-11-20T05:03:45;99083.47;;;7.46;100.00
48352;BME280;34163;49.314;6.752;2022-11-20T05:06:11;99080.91;;;7.44;100.00
48352;BME280;34163;49.314;6.752;2022-11-20T05:08:37;99079.06;;;7.46;100.00
48352;BME280;34163;49.314;6.752;2022-11-20T05:11:03;99074.59;;;7.49;100.00
48352;BME280;34163;49.314;6.752;2022-11-20T05:13:29;99073.66;;;7.50;100.00
48352;BME280;34163;49.314;6.752;2022-11-20T05:15:54;99077.97;;;7.52;100.00
48352;BME280;34163;49.314;6.752;2022-11-20T05:18:19;99065.63;;;7.53;100.00
48352;BME280;34163;49.314;6.752;2022-11-20T05:20:45;99070.78;;;7.56;100.00
48352;BME280;34163;49.314;6.752;2022-11-20T05:23:10;99074.34;;;7.55;100.00
48352;BME280;34163;49.314;6.752;2022-11-20T05:25:35;99079.56;;;7.56;100.00
48352;BME280;34163;49.314;6.752;2022-11-20T05:28:01;99071.44;;;7.61;100.00
48352;BME280;34163;49.314;6.752;2022-11-20T05:30:26;99066.16;;;7.61;100.00
48352;BME280;34163;49.314;6.752;2022-11-20T05:32:51;99075.72;;;7.63;100.00
48352;BME280;34163;49.314;6.752;2022-11-20T05:35:16;99071.31;;;7.64;100.00
48352;BME280;34163;49.314;6.752;2022-11-20T05:37:42;99070.25;;;7.68;100.00
48352;BME280;34163;49.314;6.752;2022-11-20T05:40:07;99083.31;;;7.71;100.00
48352;BME280;34163;49.314;6.752;2022-11-20T05:42:33;99077.06;;;7.74;100.00
48352;BME280;34163;49.314;6.752;2022-11-20T05:44:58;99076.19;;;7.73;100.00
48352;BME280;34163;49.314;6.752;2022-11-20T05:47:24;99077.91;;;7.74;100.00
48352;BME280;34163;49.314;6.752;2022-11-20T05:49:49;99086.63;;;7.76;100.00
48352;BME280;34163;49.314;6.752;2022-11-20T05:52:15;99081.34;;;7.76;100.00
48352;BME280;34163;49.314;6.752;2022-11-20T05:54:40;99077.78;;;7.77;100.00
48352;BME280;34163;49.314;6.752;2022-11-20T05:57:05;99077.66;;;7.80;100.00
48352;BME280;34163;49.314;6.752;2022-11-20T05:59:30;99082.94;;;7.80;100.00
48352;BME280;34163;49.314;6.752;2022-11-20T06:01:56;99083.66;;;7.84;100.00
48352;BME280;34163;49.314;6.752;2022-11-20T14:01:31;98963.13;;;5.90;100.00
48352;BME280;34163;49.314;6.752;2022-11-20T14:03:57;98957.50;;;5.76;100.00
48352;BME280;34163;49.314;6.752;2022-11-20T14:06:27;98963.13;;;5.67;100.00
48352;BME280;34163;49.314;6.752;2022-11-20T14:08:53;98961.59;;;5.59;100.00
48352;BME280;34163;49.314;6.752;2022-11-20T14:11:23;98953.41;;;6.40;100.00
48352;BME280;34163;49.314;6.752;2022-11-20T14:13:59;98959.28;;;6.90;100.00
48352;BME280;34163;49.314;6.752;2022-11-20T14:16:26;98960.59;;;7.23;100.00
48352;BME280;34163;49.314;6.752;2022-11-20T14:18:52;98949.25;;;7.41;100.00
48352;BME280;34163;49.314;6.752;2022-11-20T14:21:27;98945.03;;;7.58;100.00
48352;BME280;34163;49.314;6.752;2022-11-20T14:24:03;98943.44;;;7.74;100.00
48352;BME280;34163;49.314;6.752;2022-11-20T14:26:29;98933.09;;;7.89;100.00
48352;BME280;34163;49.314;6.752;2022-11-20T14:28:54;98944.09;;;7.98;100.00
48352;BME280;34163;49.314;6.752;2022-11-20T14:31:23;98939.25;;;8.08;100.00
48352;BME280;34163;49.314;6.752;2022-11-20T14:33:50;98938.81;;;8.17;100.00
48352;BME280;34163;49.314;6.752;2022-11-20T14:36:19;98937.66;;;8.23;100.00
48352;BME280;34163;49.314;6.752;2022-11-20T14:38:46;98931.25;;;8.29;100.00
48352;BME280;34163;49.314;6.752;2022-11-20T14:41:18;98927.56;;;8.33;100.00
48352;BME280;34163;49.314;6.752;2022-11-20T14:43:48;98927.31;;;8.37;100.00
48352;BME280;34163;49.314;6.752;2022-11-20T14:46:14;98926.22;;;8.43;100.00
48352;BME280;34163;49.314;6.752;2022-11-20T14:48:46;98925.00;;;8.50;100.00
48352;BME280;34163;49.314;6.752;2022-11-20T14:51:34;98921.41;;;8.51;100.00
48352;BME280;34163;49.314;6.752;2022-11-20T14:54:14;98907.00;;;8.59;100.00
48352;BME280;34163;49.314;6.752;2022-11-20T14:56:40;98906.84;;;8.62;100.00
48352;BME280;34163;49.314;6.752;2022-11-20T14:59:07;98906.72;;;8.65;100.00
48352;BME280;34163;49.314;6.752;2022-11-20T15:01:33;98903.03;;;8.67;100.00
48352;BME280;34163;49.314;6.752;2022-11-20T15:04:16;98900.31;;;8.69;100.00
48352;BME280;34163;49.314;6.752;2022-11-20T15:06:49;98896.63;;;8.73;100.00
48352;BME280;34163;49.314;6.752;2022-11-20T15:09:15;98887.75;;;8.74;100.00
48352;BME280;34163;49.314;6.752;2022-11-20T15:11:40;98888.47;;;8.78;100.00
48352;BME280;34163;49.314;6.752;2022-11-20T15:14:16;98892.81;;;8.79;100.00
48352;BME280;34163;49.314;6.752;2022-11-20T15:16:41;98887.38;;;8.82;100.00
48352;BME280;34163;49.314;6.752;2022-11-20T15:19:09;98886.38;;;8.84;100.00
48352;BME280;34163;49.314;6.752;2022-11-20T15:21:40;98883.66;;;8.86;100.00
48352;BME280;34163;49.314;6.752;2022-11-20T15:24:08;98883.59;;;8.87;100.00
48352;BME280;34163;49.314;6.752;2022-11-20T15:26:33;98874.69;;;8.88;100.00
48352;BME280;34163;49.314;6.752;2022-11-20T15:28:59;98884.19;;;8.93;100.00
48352;BME280;34163;49.314;6.752;2022-11-20T15:31:24;98867.34;;;8.95;100.00
48352;BME280;34163;49.314;6.752;2022-11-20T15:33:50;98869.03;;;8.96;100.00
48352;BME280;34163;49.314;6.752;2022-11-20T15:36:18;98880.38;;;8.98;100.00
48352;BME280;34163;49.314;6.752;2022-11-20T15:38:43;98869.72;;;9.00;100.00
48352;BME280;34163;49.314;6.752;2022-11-20T15:41:11;98861.72;;;9.01;100.00
48352;BME280;34163;49.314;6.752;2022-11-20T15:43:39;98867.00;;;9.01;100.00
48352;BME280;34163;49.314;6.752;2022-11-20T15:46:05;98873.56;;;7.64;100.00
48352;BME280;34163;49.314;6.752;2022-11-20T15:48:33;98866.25;;;6.90;100.00
48352;BME280;34163;49.314;6.752;2022-11-20T15:53:34;98863.19;;;6.36;100.00
48352;BME280;34163;49.314;6.752;2022-11-20T15:55:59;98869.28;;;6.16;100.00
48352;BME280;34163;49.314;6.752;2022-11-20T15:58:25;98863.69;;;6.02;100.00
48352;BME280;34163;49.314;6.752;2022-11-20T16:00:51;98865.63;;;5.96;100.00
48352;BME280;34163;49.314;6.752;2022-11-20T16:03:16;98869.50;;;5.86;100.00
48352;BME280;34163;49.314;6.752;2022-11-20T16:05:42;98866.44;;;5.75;100.00
48352;BME280;34163;49.314;6.752;2022-11-20T16:08:07;98863.13;;;5.70;100.00
48352;BME280;34163;49.314;6.752;2022-11-20T16:10:33;98859.91;;;5.61;100.00
48352;BME280;34163;49.314;6.752;2022-11-20T16:12:58;98865.28;;;5.58;100.00
48352;BME280;34163;49.314;6.752;2022-11-20T16:15:44;98855.38;;;6.34;100.00
48352;BME280;34163;49.314;6.752;2022-11-20T16:18:12;98856.63;;;6.89;100.00
48352;BME280;34163;49.314;6.752;2022-11-20T16:20:38;98848.34;;;7.19;100.00
48352;BME280;34163;49.314;6.752;2022-11-20T16:23:03;98840.41;;;7.39;100.00
48352;BME280;34163;49.314;6.752;2022-11-20T16:25:29;98845.00;;;7.55;100.00
48352;BME280;34163;49.314;6.752;2022-11-20T16:27:54;98846.13;;;7.68;100.00
48352;BME280;34163;49.314;6.752;2022-11-20T16:30:19;98845.56;;;7.80;100.00
48352;BME280;34163;49.314;6.752;2022-11-20T16:32:44;98850.19;;;7.94;100.00
48352;BME280;34163;49.314;6.752;2022-11-20T16:35:10;98841.69;;;8.07;100.00
48352;BME280;34163;49.314;6.752;2022-11-20T16:38:35;98845.84;;;8.12;100.00
48352;BME280;34163;49.314;6.752;2022-11-20T16:40:44;98829.53;;;8.22;100.00
48352;BME280;34163;49.314;6.752;2022-11-20T16:43:10;98836.25;;;8.29;100.00
48352;BME280;34163;49.314;6.752;2022-11-20T16:45:41;98826.25;;;8.35;100.00
48352;BME280;34163;49.314;6.752;2022-11-20T16:48:10;98833.94;;;8.40;100.00
48352;BME280;34163;49.314;6.752;2022-11-20T16:50:36;98831.81;;;8.48;100.00
48352;BME280;34163;49.314;6.752;2022-11-20T16:53:01;98830.72;;;8.52;100.00
48352;BME280;34163;49.314;6.752;2022-11-20T16:55:26;98818.16;;;8.58;100.00
48352;BME280;34163;49.314;6.752;2022-11-20T16:57:51;98808.19;;;8.63;100.00
48352;BME280;34163;49.314;6.752;2022-11-20T17:00:17;98823.13;;;8.64;100.00
48352;BME280;34163;49.314;6.752;2022-11-20T17:02:42;98818.63;;;8.66;100.00
48352;BME280;34163;49.314;6.752;2022-11-20T17:05:07;98806.19;;;8.68;100.00
48352;BME280;34163;49.314;6.752;2022-11-20T17:07:33;98811.22;;;8.72;100.00
48352;BME280;34163;49.314;6.752;2022-11-20T17:09:58;98816.28;;;8.77;100.00
48352;BME280;34163;49.314;6.752;2022-11-20T17:12:25;98811.00;;;8.77;100.00
48352;BME280;34163;49.314;6.752;2022-11-20T17:17:34;98816.81;;;8.84;100.00
48352;BME280;34163;49.314;6.752;2022-11-20T17:20:00;98811.53;;;8.84;100.00
48352;BME280;34163;49.314;6.752;2022-11-20T17:22:25;98801.69;;;8.87;100.00
48352;BME280;34163;49.314;6.752;2022-11-20T17:24:51;98810.28;;;8.91;100.00
48352;BME280;34163;49.314;6.752;2022-11-20T17:27:17;98804.09;;;8.92;100.00
48352;BME280;34163;49.314;6.752;2022-11-20T17:29:42;98798.72;;;8.94;100.00
48352;BME280;34163;49.314;6.752;2022-11-20T17:32:07;98796.78;;;8.97;100.00
48352;BME280;34163;49.314;6.752;2022-11-20T17:34:32;98799.41;;;8.97;100.00
48352;BME280;34163;49.314;6.752;2022-11-20T17:36:58;98794.91;;;8.99;100.00
48352;BME280;34163;49.314;6.752;2022-11-20T17:39:23;98795.59;;;9.03;100.00
48352;BME280;34163;49.314;6.752;2022-11-20T17:41:48;98801.66;;;7.79;100.00
48352;BME280;34163;49.314;6.752;2022-11-20T17:44:33;98797.59;;;6.95;100.00
48352;BME280;34163;49.314;6.752;2022-11-20T17:46:59;98792.78;;;6.63;100.00
48352;BME280;34163;49.314;6.752;2022-11-20T17:49:24;98804.88;;;6.47;100.00
48352;BME280;34163;49.314;6.752;2022-11-20T17:51:49;98791.69;;;6.26;100.00
48352;BME280;34163;49.314;6.752;2022-11-20T17:54:17;98793.13;;;6.13;100.00
48352;BME280;34163;49.314;6.752;2022-11-20T17:56:43;98804.59;;;6.10;100.00
48352;BME280;34163;49.314;6.752;2022-11-20T17:59:26;98796.50;;;5.93;100.00
48352;BME280;34163;49.314;6.752;2022-11-20T18:07:23;98773.94;;;5.65;100.00
48352;BME280;34163;49.314;6.752;2022-11-20T18:09:48;98780.16;;;5.62;100.00
48352;BME280;34163;49.314;6.752;2022-11-20T18:15:34;98785.25;;;5.89;100.00
48352;BME280;34163;49.314;6.752;2022-11-20T18:17:59;98794.56;;;6.63;100.00
48352;BME280;34163;49.314;6.752;2022-11-20T18:20:24;98801.78;;;6.99;100.00
48352;BME280;34163;49.314;6.752;2022-11-20T18:22:49;98791.28;;;7.18;100.00
48352;BME280;34163;49.314;6.752;2022-11-20T18:25:15;98779.84;;;7.38;100.00
48352;BME280;34163;49.314;6.752;2022-11-20T18:27:40;98777.38;;;7.54;100.00
48352;BME280;34163;49.314;6.752;2022-11-20T18:30:05;98779.50;;;7.64;100.00
48352;BME280;34163;49.314;6.752;2022-11-20T18:38:07;98786.75;;;8.15;100.00
48352;BME280;34163;49.314;6.752;2022-11-20T18:40:33;98784.94;;;8.17;100.00
48352;BME280;34163;49.314;6.752;2022-11-20T18:42:59;98781.88;;;8.25;100.00
48352;BME280;34163;49.314;6.752;2022-11-20T18:49:18;98773.28;;;8.39;100.00
48352;BME280;34163;49.314;6.752;2022-11-20T19:00:40;98758.34;;;8.57;100.00
48352;BME280;34163;49.314;6.752;2022-11-20T19:06:15;98753.53;;;8.65;100.00
48352;BME280;34163;49.314;6.752;2022-11-20T19:09:01;98740.06;;;8.69;100.00
48352;BME280;34163;49.314;6.752;2022-11-20T19:11:26;98727.66;;;8.71;100.00
48352;BME280;34163;49.314;6.752;2022-11-20T19:13:51;98736.19;;;8.77;100.00
48352;BME280;34163;49.314;6.752;2022-11-20T19:18:59;98766.81;;;8.81;100.00
48352;BME280;34163;49.314;6.752;2022-11-20T19:21:34;98761.44;;;8.82;100.00
48352;BME280;34163;49.314;6.752;2022-11-20T19:24:02;98767.34;;;8.87;100.00
48352;BME280;34163;49.314;6.752;2022-11-20T19:26:33;98763.81;;;8.87;100.00
48352;BME280;34163;49.314;6.752;2022-11-20T19:29:02;98761.09;;;8.88;100.00
48352;BME280;34163;49.314;6.752;2022-11-20T19:31:29;98750.38;;;8.91;100.00
48352;BME280;34163;49.314;6.752;2022-11-20T19:33:58;98744.25;;;8.91;100.00
48352;BME280;34163;49.314;6.752;2022-11-20T19:36:36;98755.44;;;8.96;100.00
48352;BME280;34163;49.314;6.752;2022-11-20T19:39:22;98770.72;;;7.64;100.00
48352;BME280;34163;49.314;6.752;2022-11-20T19:41:50;98770.16;;;6.99;100.00
48352;BME280;34163;49.314;6.752;2022-11-20T19:44:15;98761.13;;;6.65;100.00
48352;BME280;34163;49.314;6.752;2022-11-20T19:46:59;98769.06;;;6.43;100.00
48352;BME280;34163;49.314;6.752;2022-11-20T19:49:24;98780.00;;;6.33;100.00
48352;BME280;34163;49.314;6.752;2022-11-20T19:51:49;98791.81;;;6.23;100.00
48352;BME280;34163;49.314;6.752;2022-11-20T19:57:25;98785.06;;;5.94;100.00
48352;BME280;34163;49.314;6.752;2022-11-20T19:59:50;98792.59;;;5.81;100.00
48352;BME280;34163;49.314;6.752;2022-11-20T20:02:16;98789.09;;;5.80;100.00
48352;BME280;34163;49.314;6.752;2022-11-20T20:07:35;98789.75;;;5.63;100.00
48352;BME280;34163;49.314;6.752;2022-11-20T20:10:00;98799.19;;;5.45;100.00
48352;BME280;34163;49.314;6.752;2022-11-20T20:12:25;98801.91;;;5.42;100.00
48352;BME280;34163;49.314;6.752;2022-11-20T20:14:51;98796.75;;;5.41;100.00
48352;BME280;34163;49.314;6.752;2022-11-20T20:17:23;98800.63;;;5.31;100.00
48352;BME280;34163;49.314;6.752;2022-11-20T20:19:51;98801.78;;;5.23;100.00
48352;BME280;34163;49.314;6.752;2022-11-20T20:22:16;98803.47;;;5.24;100.00
48352;BME280;34163;49.314;6.752;2022-11-20T20:24:44;98806.25;;;5.20;100.00
48352;BME280;34163;49.314;6.752;2022-11-20T20:27:09;98802.94;;;5.15;100.00
48352;BME280;34163;49.314;6.752;2022-11-20T20:29:34;98804.44;;;5.91;100.00
48352;BME280;34163;49.314;6.752;2022-11-20T20:32:00;98808.41;;;6.46;100.00
48352;BME280;34163;49.314;6.752;2022-11-20T20:34:25;98812.53;;;6.73;100.00
48352;BME280;34163;49.314;6.752;2022-11-20T20:37:10;98818.59;;;6.96;100.00
48352;BME280;34163;49.314;6.752;2022-11-20T20:39:53;98821.41;;;7.12;100.00
48352;BME280;34163;49.314;6.752;2022-11-20T20:42:25;98823.50;;;7.24;100.00
48352;BME280;34163;49.314;6.752;2022-11-20T20:44:57;98822.09;;;7.36;100.00
48352;BME280;34163;49.314;6.752;2022-11-20T20:47:52;98827.72;;;7.48;100.00
48352;BME280;34163;49.314;6.752;2022-11-20T20:50:31;98826.47;;;7.56;100.00
48352;BME280;34163;49.314;6.752;2022-11-20T20:53:14;98819.97;;;7.63;100.00
48352;BME280;34163;49.314;6.752;2022-11-20T20:58:51;98826.09;;;7.83;100.00
48352;BME280;34163;49.314;6.752;2022-11-20T21:01:17;98824.06;;;7.90;100.00
48352;BME280;34163;49.314;6.752;2022-11-20T21:03:43;98800.78;;;7.98;100.00
48352;BME280;34163;49.314;6.752;2022-11-20T21:06:09;98808.41;;;8.04;100.00
48352;BME280;34163;49.314;6.752;2022-11-20T21:08:34;98805.59;;;8.07;100.00
48352;BME280;34163;49.314;6.752;2022-11-20T21:11:01;98821.06;;;8.15;100.00
48352;BME280;34163;49.314;6.752;2022-11-20T21:13:26;98815.50;;;8.21;100.00
48352;BME280;34163;49.314;6.752;2022-11-20T21:15:52;98817.91;;;8.26;100.00
48352;BME280;34163;49.314;6.752;2022-11-20T21:18:18;98822.13;;;8.30;100.00
48352;BME280;34163;49.314;6.752;2022-11-20T21:20:44;98815.69;;;8.35;100.00
48352;BME280;34163;49.314;6.752;2022-11-20T21:23:28;98818.16;;;8.39;100.00
48352;BME280;34163;49.314;6.752;2022-11-20T21:25:53;98813.47;;;8.45;100.00
48352;BME280;34163;49.314;6.752;2022-11-20T21:28:19;98814.28;;;8.47;100.00
48352;BME280;34163;49.314;6.752;2022-11-20T21:30:46;98805.41;;;8.48;100.00
48352;BME280;34163;49.314;6.752;2022-11-20T21:33:11;98816.66;;;8.52;100.00
48352;BME280;34163;49.314;6.752;2022-11-20T21:35:37;98809.38;;;8.57;100.00
48352;BME280;34163;49.314;6.752;2022-11-20T21:38:02;98811.88;;;8.60;100.00
48352;BME280;34163;49.314;6.752;2022-11-20T21:40:28;98809.16;;;8.62;100.00
48352;BME280;34163;49.314;6.752;2022-11-20T21:42:53;98814.22;;;8.66;100.00
48352;BME280;34163;49.314;6.752;2022-11-20T21:45:18;98816.75;;;8.68;100.00
48352;BME280;34163;49.314;6.752;2022-11-20T21:47:44;98809.69;;;8.68;100.00
48352;BME280;34163;49.314;6.752;2022-11-20T21:50:09;98806.03;;;8.71;100.00
48352;BME280;34163;49.314;6.752;2022-11-20T21:52:34;98814.66;;;8.75;100.00
48352;BME280;34163;49.314;6.752;2022-11-20T21:55:02;98802.31;;;8.75;100.00
48352;BME280;34163;49.314;6.752;2022-11-20T21:57:28;98795.94;;;8.79;100.00
48352;BME280;34163;49.314;6.752;2022-11-20T21:59:53;98798.50;;;8.81;100.00
48352;BME280;34163;49.314;6.752;2022-11-20T22:02:18;98786.91;;;8.83;100.00
48352;BME280;34163;49.314;6.752;2022-11-20T22:04:44;98779.75;;;8.85;100.00
48352;BME280;34163;49.314;6.752;2022-11-20T22:07:09;98788.47;;;8.87;100.00
48352;BME280;34163;49.314;6.752;2022-11-20T22:09:35;98785.69;;;8.90;100.00
48352;BME280;34163;49.314;6.752;2022-11-20T22:12:00;98785.53;;;8.94;100.00
48352;BME280;34163;49.314;6.752;2022-11-20T22:14:25;98796.22;;;8.38;100.00
48352;BME280;34163;49.314;6.752;2022-11-20T22:16:58;98808.03;;;7.17;100.00